Time;durP1;ratioP1;P1;durP2;ratioP2;P2;SDS_P1;SDS_P2;PMS_P1;PMS_P2;Temp;Humidity;BMP_temperature;BMP_pressure;BME280_temperature;BME280_humidity;BME280_pressure;Samples;Min_cycle;Max_cycle;Signal;HPM_P1;HPM_P2
2022/11/12 00:00:52;;;;;;;14.90;9.73;;;10.00;99.90;;;;;;5062725;28;20433;-70
2022/11/12 00:03:19;;;;;;;15.80;9.23;;;10.00;99.90;;;;;;5041917;28;20058;-70
2022/11/12 00:05:45;;;;;;;14.77;8.35;;;10.00;99.90;;;;;;5065398;28;20086;-70
2022/11/12 00:08:11;;;;;;;17.23;9.88;;;10.00;99.90;;;;;;5065812;28;20025;-70
2022/11/12 00:10:37;;;;;;;18.05;9.43;;;9.90;99.90;;;;;;5063426;28;20103;-71
2022/11/12 00:13:02;;;;;;;15.68;9.25;;;9.80;99.90;;;;;;5066311;28;20028;-70
2022/11/12 00:15:28;;;;;;;18.67;9.98;;;9.90;99.90;;;;;;5065741;28;20056;-70
2022/11/12 00:17:54;;;;;;;15.68;9.50;;;9.80;99.90;;;;;;5065968;28;20394;-70
2022/11/12 00:20:19;;;;;;;14.93;8.98;;;9.80;99.90;;;;;;5065444;28;20036;-70
2022/11/12 00:22:45;;;;;;;15.65;8.98;;;9.70;99.90;;;;;;5047509;28;20078;-70
2022/11/12 00:25:10;;;;;;;15.07;10.07;;;9.70;99.90;;;;;;5063820;28;20090;-70
2022/11/12 00:27:36;;;;;;;13.68;8.80;;;9.70;99.90;;;;;;5065080;28;20041;-70
2022/11/12 00:30:02;;;;;;;17.58;8.90;;;9.80;99.90;;;;;;5067230;28;20040;-70
2022/11/12 00:32:28;;;;;;;13.30;9.00;;;9.90;99.90;;;;;;5067312;28;20037;-71
2022/11/12 00:34:53;;;;;;;14.07;9.38;;;9.90;99.90;;;;;;5064612;28;20043;-70
2022/11/12 00:37:21;;;;;;;15.63;8.77;;;9.90;99.90;;;;;;5066279;28;20028;-70
2022/11/12 00:39:47;;;;;;;17.45;8.90;;;9.90;99.90;;;;;;5078081;28;20028;-70
2022/11/12 00:42:13;;;;;;;16.08;10.00;;;9.80;99.90;;;;;;5066675;28;20039;-70
2022/11/12 00:44:38;;;;;;;14.55;9.77;;;9.90;99.90;;;;;;5064478;28;20032;-70
2022/11/12 00:47:04;;;;;;;16.27;9.73;;;9.90;99.90;;;;;;5047071;28;20452;-70
2022/11/12 00:49:30;;;;;;;17.95;10.20;;;9.90;99.90;;;;;;5048242;28;20067;-70
2022/11/12 00:51:55;;;;;;;18.85;9.88;;;9.80;99.90;;;;;;5065909;28;20600;-69
2022/11/12 00:54:21;;;;;;;15.43;9.13;;;9.90;99.90;;;;;;5065543;28;20070;-70
2022/11/12 00:56:47;;;;;;;16.70;9.65;;;9.90;99.90;;;;;;5066529;28;20430;-70
2022/11/12 00:59:13;;;;;;;18.48;9.02;;;9.80;99.90;;;;;;5066413;28;20067;-70
2022/11/12 01:01:39;;;;;;;17.15;8.80;;;9.80;99.90;;;;;;5065868;28;20109;-70
2022/11/12 01:04:04;;;;;;;13.57;7.93;;;9.80;99.90;;;;;;5047647;28;20044;-70
2022/11/12 01:06:30;;;;;;;19.30;10.68;;;9.90;99.90;;;;;;5065703;28;20555;-70
2022/11/12 01:08:56;;;;;;;16.13;10.10;;;9.90;99.90;;;;;;5066879;28;20032;-70
2022/11/12 01:11:27;;;;;;;20.17;11.00;;;9.90;99.90;;;;;;5066749;28;20036;-70
2022/11/12 01:13:55;;;;;;;17.02;9.77;;;9.90;99.90;;;;;;5065310;28;20086;-70
2022/11/12 01:16:23;;;;;;;20.95;11.43;;;9.80;99.90;;;;;;5065711;28;20077;-69
2022/11/12 01:18:56;;;;;;;20.00;11.52;;;9.90;99.90;;;;;;5047515;28;20029;-70
2022/11/12 01:21:25;;;;;;;16.88;10.48;;;9.90;99.90;;;;;;5066093;28;20028;-70
2022/11/12 01:23:51;;;;;;;17.42;10.95;;;9.90;99.90;;;;;;5032254;28;20033;-70
2022/11/12 01:26:20;;;;;;;16.25;9.05;;;9.90;99.90;;;;;;5061387;28;20059;-69
2022/11/12 01:28:46;;;;;;;20.00;9.63;;;9.80;99.90;;;;;;5064960;28;20051;-70
2022/11/12 01:31:17;;;;;;;14.40;9.23;;;9.80;99.90;;;;;;5065493;28;20559;-70
2022/11/12 01:33:44;;;;;;;15.73;9.88;;;9.70;99.90;;;;;;5065419;28;20048;-70
2022/11/12 01:36:10;;;;;;;16.42;10.25;;;9.70;99.90;;;;;;5046076;28;20041;-70
2022/11/12 01:38:38;;;;;;;18.13;10.27;;;9.60;99.90;;;;;;5062330;28;20032;-70
2022/11/12 01:41:05;;;;;;;18.73;10.57;;;9.60;99.90;;;;;;5064886;28;20020;-69
2022/11/12 01:43:31;;;;;;;18.23;11.23;;;9.50;99.90;;;;;;5068433;28;20043;-70
2022/11/12 01:45:58;;;;;;;15.63;10.68;;;9.50;99.90;;;;;;5067644;28;20025;-70
2022/11/12 01:48:31;;;;;;;19.30;10.73;;;9.50;99.90;;;;;;5069048;28;20032;-70
2022/11/12 01:50:57;;;;;;;21.65;11.30;;;9.60;99.90;;;;;;5060273;28;20064;-70
2022/11/12 01:53:26;;;;;;;17.23;10.05;;;9.70;99.90;;;;;;5048143;28;20075;-70
2022/11/12 01:55:53;;;;;;;18.88;11.00;;;9.70;99.90;;;;;;5068452;28;20028;-69
2022/11/12 01:58:23;;;;;;;17.05;10.18;;;9.80;99.90;;;;;;5063324;28;20028;-69
2022/11/12 02:00:49;;;;;;;20.60;11.52;;;9.80;99.90;;;;;;5066444;28;20487;-70
2022/11/12 02:03:19;;;;;;;17.95;11.93;;;9.80;99.90;;;;;;5061418;28;20040;-70
2022/11/12 02:05:48;;;;;;;17.90;11.15;;;9.80;99.90;;;;;;5068369;28;20032;-70
2022/11/12 02:08:14;;;;;;;17.65;11.15;;;9.80;99.90;;;;;;5065709;28;20021;-70
2022/11/12 02:10:40;;;;;;;15.55;10.75;;;9.90;99.90;;;;;;5068501;28;20037;-70
2022/11/12 02:15:51;;;;;;;16.27;10.95;;;9.90;99.90;;;;;;5068850;28;20070;-70
2022/11/12 02:18:17;;;;;;;18.10;10.90;;;9.80;99.90;;;;;;5068717;28;20876;-70
2022/11/12 02:20:43;;;;;;;17.30;11.00;;;9.70;99.90;;;;;;5041882;28;20033;-70
2022/11/12 02:23:08;;;;;;;16.25;10.77;;;9.70;99.90;;;;;;5066530;28;20478;-70
2022/11/12 02:25:35;;;;;;;18.17;11.23;;;9.60;99.90;;;;;;5067035;28;20055;-70
2022/11/12 02:28:05;;;;;;;20.63;12.43;;;9.60;99.90;;;;;;5067399;28;20114;-70
2022/11/12 02:30:43;;;;;;;14.80;11.02;;;9.60;99.90;;;;;;5072152;28;20044;-70
2022/11/12 02:33:09;;;;;;;16.77;11.30;;;9.60;99.90;;;;;;5053116;28;20055;-70
2022/11/12 02:35:35;;;;;;;21.10;11.82;;;9.60;99.90;;;;;;5076036;28;20029;-70
2022/11/12 02:38:01;;;;;;;18.88;11.23;;;9.60;99.90;;;;;;5068470;28;20148;-70
2022/11/12 02:40:26;;;;;;;23.02;11.90;;;9.70;99.90;;;;;;5067035;28;20029;-70
2022/11/12 02:42:52;;;;;;;16.73;11.50;;;9.70;99.90;;;;;;5082232;28;20017;-69
2022/11/12 02:45:18;;;;;;;24.08;13.57;;;9.70;99.90;;;;;;5067166;28;20049;-70
2022/11/12 02:47:44;;;;;;;19.02;12.23;;;9.80;99.90;;;;;;5068103;28;20020;-70
2022/11/12 02:50:10;;;;;;;20.80;11.77;;;9.70;99.90;;;;;;5067658;28;20029;-70
2022/11/12 02:52:35;;;;;;;18.00;11.90;;;9.80;99.90;;;;;;5067291;28;20044;-70
2022/11/12 02:55:01;;;;;;;18.27;12.23;;;9.80;99.90;;;;;;5067166;28;20406;-70
2022/11/12 02:57:28;;;;;;;21.45;13.63;;;9.80;99.90;;;;;;5066844;28;20028;-70
2022/11/12 02:59:54;;;;;;;21.70;12.63;;;9.80;99.90;;;;;;5066708;28;20056;-69
2022/11/12 03:02:19;;;;;;;19.48;11.82;;;9.90;99.90;;;;;;5048755;28;20454;-70
2022/11/12 03:04:45;;;;;;;21.02;13.50;;;9.90;99.90;;;;;;5066366;28;20040;-70
2022/11/12 03:07:11;;;;;;;20.35;13.27;;;10.00;99.90;;;;;;5071797;28;20028;-70
2022/11/12 03:09:36;;;;;;;23.08;14.25;;;10.00;99.90;;;;;;5047770;28;20028;-70
2022/11/12 03:12:02;;;;;;;22.95;11.10;;;10.10;99.90;;;;;;5066425;28;20120;-70
2022/11/12 03:14:27;;;;;;;18.80;12.57;;;10.10;99.90;;;;;;5066249;28;20513;-70
2022/11/12 03:16:53;;;;;;;15.13;9.77;;;10.20;99.90;;;;;;5064607;28;20078;-70
2022/11/12 03:19:18;;;;;;;19.73;12.40;;;10.20;99.90;;;;;;5045055;28;20072;-70
2022/11/12 03:21:44;;;;;;;22.65;14.05;;;10.30;99.90;;;;;;5055408;28;20466;-70
2022/11/12 03:24:10;;;;;;;19.73;12.68;;;10.30;99.90;;;;;;5045545;28;20071;-70
2022/11/12 03:26:35;;;;;;;21.85;13.45;;;10.30;99.90;;;;;;5066383;28;20025;-70
2022/11/12 03:29:01;;;;;;;21.70;13.38;;;10.30;99.90;;;;;;5049362;28;20082;-70
2022/11/12 03:31:27;;;;;;;21.30;13.43;;;10.30;99.90;;;;;;5067124;28;20071;-70
2022/11/12 03:33:52;;;;;;;19.75;13.90;;;10.30;99.90;;;;;;5066854;28;20032;-70
2022/11/12 03:36:18;;;;;;;23.15;14.10;;;10.30;99.90;;;;;;5067134;28;20028;-70
2022/11/12 03:38:43;;;;;;;21.05;14.02;;;10.30;99.90;;;;;;5048517;28;20067;-70
2022/11/12 03:41:09;;;;;;;20.05;14.30;;;10.40;99.90;;;;;;5067688;28;20090;-70
2022/11/12 03:43:34;;;;;;;24.95;13.80;;;10.40;99.90;;;;;;5049156;28;20040;-70
2022/11/12 03:46:00;;;;;;;23.73;13.95;;;10.40;99.90;;;;;;5049269;28;20079;-70
2022/11/12 03:48:26;;;;;;;23.38;14.20;;;10.40;99.90;;;;;;5066258;28;20497;-70
2022/11/12 03:50:56;;;;;;;24.63;15.07;;;10.50;99.90;;;;;;5048242;28;20029;-70
2022/11/12 03:53:21;;;;;;;20.55;13.75;;;10.50;99.90;;;;;;5048569;28;20036;-70
2022/11/12 03:55:47;;;;;;;25.13;15.57;;;10.50;99.90;;;;;;5067228;28;20436;-70
2022/11/12 03:58:12;;;;;;;24.35;15.48;;;10.50;99.90;;;;;;5069012;28;20576;-70
2022/11/12 04:00:38;;;;;;;22.58;15.35;;;10.50;99.90;;;;;;5064485;28;20044;-70
2022/11/12 04:03:04;;;;;;;26.60;16.48;;;10.60;99.90;;;;;;5063725;28;20040;-70
2022/11/12 04:08:35;;;;;;;27.85;15.75;;;10.70;99.90;;;;;;5066728;28;20085;-70
2022/11/12 04:11:03;;;;;;;19.30;13.15;;;10.80;99.90;;;;;;5065102;28;20474;-70
2022/11/12 04:13:29;;;;;;;22.35;14.32;;;10.80;99.90;;;;;;5059107;28;20025;-70
2022/11/12 04:21:55;;;;;;;23.20;14.15;;;10.90;99.90;;;;;;5066386;28;20035;-70
2022/11/12 04:27:23;;;;;;;23.40;14.48;;;10.90;99.90;;;;;;5055584;28;20545;-70
2022/11/12 04:32:36;;;;;;;19.88;12.40;;;10.80;99.90;;;;;;5065851;28;20497;-70
2022/11/12 04:35:03;;;;;;;22.60;13.40;;;10.80;99.90;;;;;;5066948;28;20032;-70
2022/11/12 04:37:43;;;;;;;15.32;11.27;;;10.80;99.90;;;;;;5066079;28;20029;-70
2022/11/12 04:45:40;;;;;;;20.50;13.45;;;10.80;99.90;;;;;;5065964;28;20040;-70
2022/11/12 04:48:06;;;;;;;25.13;13.57;;;10.80;99.90;;;;;;5069007;28;20478;-70
2022/11/12 04:50:32;;;;;;;20.92;13.07;;;10.90;99.90;;;;;;5065692;28;20024;-70
2022/11/12 04:52:57;;;;;;;24.67;13.77;;;10.90;99.90;;;;;;5064863;28;20064;-70
2022/11/12 04:55:23;;;;;;;19.48;10.95;;;10.90;99.90;;;;;;5065611;28;20056;-70
2022/11/12 04:57:48;;;;;;;14.48;9.82;;;10.90;99.90;;;;;;5066380;28;20036;-70
2022/11/12 05:00:14;;;;;;;25.73;12.80;;;10.80;99.90;;;;;;5037195;28;20113;-70
2022/11/12 05:02:40;;;;;;;20.98;13.05;;;10.80;99.90;;;;;;5051007;28;20069;-70
2022/11/12 05:05:06;;;;;;;17.17;11.30;;;10.80;99.90;;;;;;5033827;28;20043;-70
2022/11/12 05:07:32;;;;;;;18.98;12.65;;;10.80;99.90;;;;;;5064205;28;20032;-70
2022/11/12 05:09:58;;;;;;;20.33;13.23;;;10.80;99.90;;;;;;5062174;28;20028;-70
2022/11/12 05:12:23;;;;;;;21.85;12.90;;;10.80;99.90;;;;;;5066321;28;20036;-70
2022/11/12 05:14:49;;;;;;;21.08;13.93;;;10.90;99.90;;;;;;5069403;28;20040;-71
2022/11/12 05:17:14;;;;;;;20.67;13.88;;;10.90;99.90;;;;;;5069669;28;20029;-70
2022/11/12 05:19:40;;;;;;;25.67;14.40;;;10.90;99.90;;;;;;5050903;28;20540;-70
2022/11/12 05:22:06;;;;;;;25.98;14.68;;;10.90;99.90;;;;;;5068587;28;20037;-70
2022/11/12 05:24:37;;;;;;;24.35;14.98;;;10.90;99.90;;;;;;5069388;28;20036;-70
2022/11/12 05:27:07;;;;;;;25.88;15.30;;;10.90;99.90;;;;;;5068948;28;20032;-70
2022/11/12 05:29:32;;;;;;;19.48;13.63;;;10.90;99.90;;;;;;5051165;28;20028;-70
2022/11/12 05:31:58;;;;;;;23.17;13.88;;;10.80;99.90;;;;;;5051893;28;20615;-70
2022/11/12 05:34:23;;;;;;;20.80;13.70;;;10.80;99.90;;;;;;5072850;28;20047;-70
2022/11/12 05:36:49;;;;;;;21.83;13.20;;;10.80;99.90;;;;;;5082789;28;20032;-71
2022/11/12 05:39:14;;;;;;;20.65;11.90;;;10.80;99.90;;;;;;5070361;28;20033;-71
2022/11/12 05:41:40;;;;;;;20.63;13.48;;;10.80;99.90;;;;;;5069214;28;20108;-71
2022/11/12 05:44:06;;;;;;;22.80;14.38;;;10.80;99.90;;;;;;5068906;28;20032;-70
2022/11/12 05:46:31;;;;;;;17.92;12.07;;;10.80;99.90;;;;;;5051038;28;20678;-70
2022/11/12 05:48:57;;;;;;;21.08;13.60;;;10.80;99.90;;;;;;5068431;28;20118;-70
2022/11/12 05:51:22;;;;;;;22.33;14.18;;;10.70;99.90;;;;;;5068877;28;20419;-70
2022/11/12 05:53:48;;;;;;;21.45;14.43;;;10.70;99.90;;;;;;5069077;28;20072;-70
2022/11/12 05:56:13;;;;;;;25.52;15.70;;;10.70;99.90;;;;;;5049946;28;20039;-70
2022/11/12 05:58:39;;;;;;;26.63;15.30;;;10.80;99.90;;;;;;5073414;28;20062;-70
2022/11/12 06:01:05;;;;;;;24.27;14.00;;;10.70;99.90;;;;;;5049394;28;20028;-70
2022/11/12 06:03:31;;;;;;;23.52;15.00;;;10.80;99.90;;;;;;5050010;28;20131;-71
2022/11/12 06:05:56;;;;;;;24.42;15.13;;;10.80;99.90;;;;;;5066245;28;20117;-70
2022/11/12 06:08:22;;;;;;;24.73;15.15;;;10.80;99.90;;;;;;5065459;28;20040;-70
2022/11/12 06:10:49;;;;;;;25.40;15.80;;;10.80;99.90;;;;;;5049709;28;20054;-71
2022/11/12 06:13:14;;;;;;;23.83;15.02;;;10.90;99.90;;;;;;5067145;28;20067;-71
2022/11/12 06:15:40;;;;;;;25.50;15.45;;;10.90;99.90;;;;;;5067777;28;20060;-71
2022/11/12 06:18:06;;;;;;;22.95;16.20;;;11.00;99.90;;;;;;5058853;28;20036;-70
2022/11/12 06:20:31;;;;;;;29.40;14.93;;;11.10;99.90;;;;;;5068085;28;20032;-71
2022/11/12 06:22:57;;;;;;;27.48;15.18;;;11.10;99.90;;;;;;5048157;28;21546;-71
2022/11/12 06:25:22;;;;;;;25.25;15.30;;;11.10;99.90;;;;;;5068171;28;20405;-71
2022/11/12 06:27:48;;;;;;;27.98;16.55;;;11.20;99.90;;;;;;5064748;28;20044;-70
2022/11/12 06:30:14;;;;;;;31.95;18.27;;;11.20;99.90;;;;;;5065237;28;20040;-70
2022/11/12 06:32:39;;;;;;;25.98;16.92;;;11.20;99.90;;;;;;5062457;28;20021;-70
2022/11/12 06:35:06;;;;;;;26.83;16.00;;;11.20;99.90;;;;;;5066870;28;20036;-71
2022/11/12 06:37:31;;;;;;;26.35;16.27;;;11.20;99.90;;;;;;5068193;28;20032;-71
2022/11/12 06:39:57;;;;;;;23.38;15.43;;;11.20;99.90;;;;;;5067597;28;20647;-70
2022/11/12 06:42:22;;;;;;;20.92;14.57;;;11.20;99.90;;;;;;5068469;28;20120;-70
2022/11/12 06:44:48;;;;;;;28.35;15.80;;;11.20;99.90;;;;;;5049321;28;20446;-70
2022/11/12 06:47:14;;;;;;;23.33;14.65;;;11.20;99.90;;;;;;5064717;28;20043;-70
2022/11/12 06:49:39;;;;;;;23.00;15.35;;;11.10;99.90;;;;;;5045727;28;20032;-71
2022/11/12 06:52:05;;;;;;;27.30;17.10;;;11.10;99.90;;;;;;5045755;28;20028;-70
2022/11/12 06:54:30;;;;;;;24.00;15.40;;;11.10;99.90;;;;;;5052042;28;20393;-71
2022/11/12 06:56:56;;;;;;;24.00;13.98;;;11.10;99.90;;;;;;5066326;28;20024;-71
2022/11/12 06:59:21;;;;;;;23.55;14.18;;;11.10;99.90;;;;;;5069440;28;20024;-71
2022/11/12 07:01:47;;;;;;;27.25;15.43;;;11.10;99.90;;;;;;5057514;28;20036;-71
2022/11/12 07:04:13;;;;;;;24.50;15.82;;;11.10;99.90;;;;;;5049704;28;20032;-71
2022/11/12 07:06:38;;;;;;;30.65;17.48;;;11.10;99.90;;;;;;5065647;28;20035;-71
2022/11/12 07:09:04;;;;;;;27.85;16.38;;;11.00;99.90;;;;;;5066592;28;20139;-70
2022/11/12 07:11:30;;;;;;;18.10;11.43;;;11.00;99.90;;;;;;5064877;28;20044;-71
2022/11/12 07:13:56;;;;;;;26.02;15.45;;;11.00;99.90;;;;;;5048846;28;20024;-71
2022/11/12 07:16:21;;;;;;;30.95;16.45;;;11.00;99.90;;;;;;5062391;28;20032;-71
2022/11/12 07:18:48;;;;;;;27.95;15.45;;;11.00;99.90;;;;;;5044101;28;20033;-71
2022/11/12 07:21:16;;;;;;;24.48;15.63;;;11.00;99.90;;;;;;5063119;28;20033;-71
2022/11/12 07:23:42;;;;;;;28.25;15.70;;;11.00;99.90;;;;;;5041988;28;20089;-69
2022/11/12 07:26:13;;;;;;;25.35;14.85;;;11.00;99.90;;;;;;5063149;28;20032;-70
2022/11/12 07:28:40;;;;;;;20.38;13.63;;;11.00;99.90;;;;;;5059114;28;20035;-70
2022/11/12 07:31:09;;;;;;;22.20;14.07;;;11.00;99.90;;;;;;5066880;28;20033;-69
2022/11/12 07:33:35;;;;;;;29.08;16.15;;;11.10;99.90;;;;;;5066952;28;20119;-70
2022/11/12 07:36:06;;;;;;;26.45;15.75;;;11.10;99.90;;;;;;5062462;28;20032;-69
2022/11/12 07:38:34;;;;;;;25.65;17.15;;;11.10;99.90;;;;;;5060493;28;20086;-70
2022/11/12 07:41:01;;;;;;;30.83;16.83;;;11.10;99.90;;;;;;5046916;28;20455;-71
2022/11/12 07:43:31;;;;;;;21.65;14.23;;;11.20;99.90;;;;;;5066597;28;20441;-69
2022/11/12 07:46:02;;;;;;;24.27;16.20;;;11.20;99.90;;;;;;5064124;28;20024;-71
2022/11/12 07:48:29;;;;;;;19.58;13.00;;;11.30;99.90;;;;;;5064862;28;20038;-71
2022/11/12 07:51:02;;;;;;;28.02;16.80;;;11.40;99.90;;;;;;5068766;28;20049;-71
2022/11/12 07:53:28;;;;;;;26.13;16.70;;;11.40;99.90;;;;;;5069262;28;20060;-70
2022/11/12 07:55:55;;;;;;;27.90;18.35;;;11.50;99.90;;;;;;5047838;28;20056;-71
2022/11/12 07:58:22;;;;;;;20.48;12.98;;;11.50;99.90;;;;;;5063155;28;20036;-71
2022/11/12 08:00:47;;;;;;;23.95;16.35;;;11.60;99.90;;;;;;5067266;28;20029;-71
2022/11/12 08:03:13;;;;;;;22.55;16.77;;;11.70;99.90;;;;;;5061066;28;20025;-71
2022/11/12 08:05:38;;;;;;;22.85;16.10;;;11.70;99.90;;;;;;5062952;28;20056;-70
2022/11/12 08:08:04;;;;;;;23.35;15.15;;;11.70;99.90;;;;;;5061675;28;20036;-70
2022/11/12 08:10:29;;;;;;;27.33;16.75;;;11.80;99.90;;;;;;5068788;28;20042;-70
2022/11/12 08:12:55;;;;;;;26.02;17.23;;;11.80;99.90;;;;;;5067156;28;20043;-71
2022/11/12 08:15:21;;;;;;;27.10;17.42;;;11.90;99.90;;;;;;5067594;28;20036;-70
2022/11/12 08:17:47;;;;;;;27.35;16.63;;;11.90;99.90;;;;;;5069372;28;20458;-70
2022/11/12 08:20:12;;;;;;;25.63;17.42;;;11.90;99.90;;;;;;5049508;28;20024;-70
2022/11/12 08:22:38;;;;;;;25.40;16.58;;;12.10;99.90;;;;;;5065564;28;20482;-70
2022/11/12 08:25:04;;;;;;;20.73;15.15;;;12.20;99.90;;;;;;5068153;28;20424;-70
2022/11/12 08:27:30;;;;;;;21.67;15.95;;;12.40;99.90;;;;;;5063762;28;20064;-70
2022/11/12 08:29:55;;;;;;;23.17;14.93;;;12.50;99.90;;;;;;5064846;28;20976;-70
2022/11/12 08:32:21;;;;;;;18.20;13.77;;;12.60;99.90;;;;;;5065643;28;20028;-71
2022/11/12 08:34:46;;;;;;;17.98;12.63;;;12.70;99.90;;;;;;5068626;28;20059;-70
2022/11/12 08:37:12;;;;;;;18.05;11.25;;;12.90;99.90;;;;;;5069276;28;20036;-70
2022/11/12 08:39:37;;;;;;;18.85;11.98;;;13.10;99.90;;;;;;5067005;28;20475;-70
2022/11/12 08:42:03;;;;;;;15.25;10.95;;;13.40;99.90;;;;;;5065487;28;20494;-70
2022/11/12 08:44:29;;;;;;;18.33;11.23;;;13.70;99.90;;;;;;5065598;28;20044;-70
2022/11/12 08:46:55;;;;;;;14.85;10.88;;;14.00;99.90;;;;;;5065683;28;20035;-70
2022/11/12 08:49:21;;;;;;;14.18;10.25;;;14.20;99.90;;;;;;5066571;28;20449;-70
2022/11/12 08:51:46;;;;;;;12.40;9.70;;;14.40;99.90;;;;;;5065975;28;20057;-70
2022/11/12 08:54:12;;;;;;;11.43;8.80;;;14.40;99.90;;;;;;5046184;28;20482;-71
2022/11/12 08:56:38;;;;;;;12.10;9.63;;;14.60;99.90;;;;;;5065330;28;20034;-70
2022/11/12 08:59:04;;;;;;;12.07;8.45;;;14.80;99.90;;;;;;5064945;28;20024;-70
2022/11/12 09:01:29;;;;;;;12.13;8.30;;;14.90;99.90;;;;;;5053091;28;20434;-70
2022/11/12 09:03:55;;;;;;;12.23;8.70;;;15.00;99.90;;;;;;5055352;28;20044;-70
2022/11/12 09:06:21;;;;;;;11.95;8.68;;;15.30;99.90;;;;;;5047930;28;20039;-70
2022/11/12 09:08:46;;;;;;;13.27;9.73;;;15.50;99.90;;;;;;5066330;28;20659;-70
2022/11/12 09:11:12;;;;;;;17.88;12.27;;;15.90;99.90;;;;;;5064828;28;20032;-70
2022/11/12 09:13:38;;;;;;;18.73;15.20;;;16.10;99.90;;;;;;5068070;28;20040;-71
2022/11/12 09:16:06;;;;;;;18.67;12.43;;;16.40;99.90;;;;;;5063840;28;20387;-70
2022/11/12 09:18:33;;;;;;;12.23;9.10;;;16.50;99.90;;;;;;5052499;28;20039;-71
2022/11/12 09:21:03;;;;;;;11.07;8.75;;;16.50;99.90;;;;;;5046991;28;20426;-70
2022/11/12 09:23:29;;;;;;;13.60;8.50;;;16.40;99.90;;;;;;5063474;28;20036;-70
2022/11/12 09:25:56;;;;;;;13.27;8.95;;;16.40;99.90;;;;;;5063908;28;20073;-71
2022/11/12 09:28:22;;;;;;;12.65;8.63;;;16.40;99.90;;;;;;5063855;28;20019;-70
2022/11/12 09:30:50;;;;;;;11.70;7.95;;;16.60;99.90;;;;;;5062393;28;20040;-70
2022/11/12 09:33:24;;;;;;;10.20;7.95;;;16.70;99.90;;;;;;5043967;28;20593;-70
2022/11/12 09:35:50;;;;;;;12.80;8.27;;;17.10;99.90;;;;;;5064123;28;20479;-70
2022/11/12 09:38:17;;;;;;;10.77;8.43;;;16.70;99.90;;;;;;5059635;28;20577;-70
2022/11/12 09:40:51;;;;;;;11.80;8.18;;;16.70;99.90;;;;;;5063281;28;20029;-71
2022/11/12 09:43:28;;;;;;;11.80;8.63;;;16.80;99.90;;;;;;5058228;28;20799;-70
2022/11/12 09:45:58;;;;;;;14.25;8.25;;;16.80;99.90;;;;;;5061620;28;20041;-71
2022/11/12 09:48:30;;;;;;;11.85;9.38;;;16.90;99.90;;;;;;5062294;28;20096;-70
2022/11/12 09:51:01;;;;;;;12.43;8.38;;;17.00;99.90;;;;;;5063211;28;20024;-70
2022/11/12 09:53:35;;;;;;;12.57;8.80;;;16.70;99.90;;;;;;5059491;28;20024;-71
2022/11/12 09:56:06;;;;;;;13.95;8.38;;;16.60;99.90;;;;;;5060469;28;20437;-70
2022/11/12 09:58:31;;;;;;;15.23;8.77;;;16.60;99.90;;;;;;5062867;28;20021;-70
2022/11/12 10:01:05;;;;;;;12.45;8.00;;;16.80;99.90;;;;;;5061269;28;20501;-70
2022/11/12 10:03:33;;;;;;;14.95;8.32;;;17.00;99.90;;;;;;5061718;28;20028;-71
2022/11/12 10:06:23;;;;;;;15.48;8.18;;;17.00;99.90;;;;;;5067609;28;20451;-70
2022/11/12 10:09:09;;;;;;;10.32;7.97;;;16.90;99.90;;;;;;5046370;28;21757;-70
2022/11/12 10:14:54;;;;;;;10.90;7.43;;;17.00;99.90;;;;;;5063657;28;20151;-71
2022/11/12 10:17:48;;;;;;;11.77;7.38;;;17.20;99.90;;;;;;5065699;28;20020;-71
2022/11/12 10:20:24;;;;;;;9.93;7.28;;;17.20;99.90;;;;;;5046177;28;20033;-70
2022/11/12 10:22:58;;;;;;;14.27;6.88;;;17.30;99.90;;;;;;5062471;28;20037;-71
2022/11/12 10:25:25;;;;;;;7.93;6.10;;;17.30;99.90;;;;;;5047867;28;20131;-70
2022/11/12 10:27:54;;;;;;;9.05;6.18;;;17.10;99.90;;;;;;5065254;28;20035;-70
2022/11/12 10:30:22;;;;;;;;;;;16.80;99.90;;;;;;5048178;28;20024;-70
2022/11/12 10:32:50;;;;;;;8.10;5.95;;;16.60;99.90;;;;;;5063840;28;19916;-71
2022/11/12 10:35:18;;;;;;;10.55;6.15;;;16.60;99.90;;;;;;5065763;28;20037;-70
2022/11/12 10:37:52;;;;;;;9.20;5.97;;;16.60;99.90;;;;;;5070047;28;20075;-71
2022/11/12 10:40:23;;;;;;;8.32;5.35;;;16.60;99.90;;;;;;5064585;28;20064;-70
2022/11/12 10:42:58;;;;;;;11.77;5.47;;;16.70;99.90;;;;;;5067506;28;20028;-70
2022/11/12 10:45:23;;;;;;;9.52;5.43;;;16.80;99.90;;;;;;5048860;28;20574;-70
2022/11/12 10:47:49;;;;;;;8.40;5.05;;;16.80;99.90;;;;;;5068067;28;20043;-71
2022/11/12 10:50:28;;;;;;;7.82;5.28;;;17.00;99.90;;;;;;5048640;28;20028;-71
2022/11/12 10:53:06;;;;;;;7.40;4.75;;;16.90;99.90;;;;;;5063807;28;20463;-70
2022/11/12 10:55:34;;;;;;;8.90;5.18;;;17.00;99.90;;;;;;5058245;28;20047;-70
2022/11/12 10:58:15;;;;;;;13.88;6.15;;;16.90;99.90;;;;;;5051368;28;20120;-71
2022/11/12 11:01:00;;;;;;;8.07;5.57;;;16.90;99.90;;;;;;5064694;28;20491;-70
2022/11/12 11:03:30;;;;;;;7.60;5.00;;;17.70;99.90;;;;;;5033506;28;20447;-71
2022/11/12 11:05:59;;;;;;;7.43;4.97;;;19.40;99.90;;;;;;5064414;28;20108;-71
2022/11/12 11:09:08;;;;;;;9.13;4.90;;;20.60;99.90;;;;;;5064838;28;20045;-71
2022/11/12 11:11:33;;;;;;;7.65;4.65;;;20.20;99.90;;;;;;5064099;28;20108;-70
2022/11/12 11:14:39;;;;;;;10.45;5.22;;;19.50;99.90;;;;;;5061463;28;20051;-71
2022/11/12 11:17:08;;;;;;;7.40;5.07;;;18.80;99.90;;;;;;4977877;28;20034;-72
2022/11/12 11:19:37;;;;;;;9.32;4.65;;;18.30;99.90;;;;;;4980134;28;20034;-71
2022/11/12 11:22:38;;;;;;;9.65;5.18;;;18.00;99.90;;;;;;5026821;28;20032;-70
2022/11/12 11:25:37;;;;;;;10.50;4.80;;;17.70;99.90;;;;;;5048143;28;20040;-71
2022/11/12 11:28:11;;;;;;;7.47;5.37;;;17.50;99.90;;;;;;5005594;28;20086;-71
2022/11/12 11:30:50;;;;;;;7.10;5.18;;;17.40;99.90;;;;;;5031807;28;20033;-70
2022/11/12 11:33:29;;;;;;;7.95;5.85;;;17.30;99.90;;;;;;5064893;28;20616;-69
2022/11/12 11:36:15;;;;;;;8.98;5.63;;;17.30;99.90;;;;;;5062573;28;20028;-71
2022/11/12 11:38:45;;;;;;;12.00;6.35;;;17.10;99.90;;;;;;5064908;28;20486;-69
2022/11/12 11:41:19;;;;;;;8.57;5.57;;;16.90;99.90;;;;;;5061174;28;20028;-69
2022/11/12 11:44:04;;;;;;;8.73;6.15;;;16.80;99.90;;;;;;5066698;28;20061;-69
2022/11/12 11:46:49;;;;;;;8.82;5.57;;;16.80;99.90;;;;;;5046887;28;20029;-70
2022/11/12 11:49:39;;;;;;;8.13;6.25;;;16.90;99.90;;;;;;5062910;28;20025;-70
2022/11/12 11:52:32;;;;;;;8.88;6.28;;;17.00;99.90;;;;;;5063571;28;20029;-69
2022/11/12 11:54:58;;;;;;;9.65;6.05;;;16.90;99.90;;;;;;5065776;28;20039;-70
2022/11/12 11:57:53;;;;;;;7.50;5.78;;;16.80;99.90;;;;;;5046240;28;20025;-70
2022/11/12 12:00:21;;;;;;;8.98;5.18;;;16.80;99.90;;;;;;5063234;28;20059;-70
2022/11/12 12:02:53;;;;;;;8.38;6.07;;;16.90;99.90;;;;;;5062821;28;20036;-70
2022/11/12 12:05:40;;;;;;;10.40;5.80;;;17.00;99.90;;;;;;5062503;28;20063;-70
2022/11/12 12:08:14;;;;;;;7.93;5.28;;;17.20;99.90;;;;;;5038891;28;20471;-71
2022/11/12 12:11:11;;;;;;;7.45;5.25;;;17.50;99.90;;;;;;5058617;28;20035;-70
2022/11/12 12:14:00;;;;;;;8.43;4.97;;;17.50;99.90;;;;;;5042662;28;20036;-70
2022/11/12 12:16:50;;;;;;;7.57;4.45;;;17.50;99.90;;;;;;5046327;28;20029;-70
2022/11/12 12:19:24;;;;;;;6.15;4.40;;;17.40;99.90;;;;;;5064037;28;20244;-71
2022/11/12 12:21:51;;;;;;;6.90;4.57;;;17.20;99.90;;;;;;5061546;28;20451;-71
2022/11/12 12:24:34;;;;;;;10.23;4.88;;;17.10;99.90;;;;;;5060955;28;20032;-70
2022/11/12 12:27:07;;;;;;;10.40;4.47;;;16.90;99.90;;;;;;5056787;28;20037;-70
2022/11/12 12:29:49;;;;;;;10.02;5.18;;;16.80;99.90;;;;;;5060788;28;20075;-71
2022/11/12 12:32:32;;;;;;;9.15;5.00;;;16.80;99.90;;;;;;5041166;28;20043;-71
2022/11/12 12:35:18;;;;;;;7.72;4.30;;;16.70;99.90;;;;;;5043681;28;20035;-70
2022/11/12 12:38:01;;;;;;;7.95;4.50;;;16.70;99.90;;;;;;5064317;28;20032;-70
2022/11/12 12:40:52;;;;;;;6.47;4.20;;;16.60;99.90;;;;;;5064051;28;20051;-70
2022/11/12 12:43:44;;;;;;;9.43;4.90;;;16.50;99.90;;;;;;5059786;28;20048;-69
2022/11/12 12:46:12;;;;;;;10.93;5.07;;;16.50;99.90;;;;;;5038802;28;20047;-70
2022/11/12 12:48:41;;;;;;;9.57;5.20;;;16.50;99.90;;;;;;5064910;28;20035;-71
2022/11/12 12:51:07;;;;;;;8.43;4.80;;;16.60;99.90;;;;;;5060760;28;20146;-70
2022/11/12 12:53:35;;;;;;;9.45;5.10;;;16.60;99.90;;;;;;5061653;28;20440;-71
2022/11/12 12:56:06;;;;;;;7.28;4.35;;;16.60;99.90;;;;;;5059431;28;20557;-71
2022/11/12 12:58:47;;;;;;;7.03;4.05;;;16.60;99.90;;;;;;5063794;28;20051;-71
2022/11/12 13:01:19;;;;;;;7.20;4.35;;;16.60;99.90;;;;;;5061011;28;20029;-71
2022/11/12 13:03:48;;;;;;;7.97;4.47;;;16.50;99.90;;;;;;5041238;28;20086;-70
2022/11/12 13:06:22;;;;;;;9.38;4.70;;;16.50;99.90;;;;;;5062455;28;20108;-71
2022/11/12 13:08:50;;;;;;;9.57;5.60;;;16.50;99.90;;;;;;5046193;28;20082;-71
2022/11/12 13:14:35;;;;;;;9.68;5.75;;;16.50;99.90;;;;;;5059339;28;20047;-70